Time,TemperatureF,DewpointF,PressureIn,WindDirection,WindDirectionDegrees,WindSpeedMPH,WindSpeedGustMPH,Humidity,HourlyPrecipIn,Conditions,Clouds,dailyrainin,SolarRadiationWatts/m^2,SoftwareType,DateUTC
2013-05-28 00:01:00,51.7,45.7,30.14,NNE,31,0.0,0.0,80,0.00,,,0.00,0,HR-IXPWINDi_r2_v1.2.,2013-05-28 04:01:00,
2013-05-28 00:06:00,51.6,45.6,30.14,NNE,31,0.0,0.0,80,0.00,,,0.00,0,HR-IXPWINDi_r2_v1.2.,2013-05-28 04:06:00,
2013-05-28 00:11:00,51.6,45.6,30.14,NNE,31,0.0,0.0,80,0.00,,,0.00,0,HR-IXPWINDi_r2_v1.2.,2013-05-28 04:11:00,
2013-05-28 00:16:00,51.6,45.9,30.14,NNE,31,0.0,0.0,81,0.00,,,0.00,0,HR-IXPWINDi_r2_v1.2.,2013-05-28 04:16:00,
2013-05-28 00:21:00,51.4,45.7,30.15,NNE,31,0.0,0.0,81,0.00,,,0.00,0,HR-IXPWINDi_r2_v1.2.,2013-05-28 04:21:00,
2013-05-28 00:26:00,51.4,45.7,30.15,NNE,31,0.0,0.0,81,0.00,,,0.00,0,HR-IXPWINDi_r2_v1.2.,2013-05-28 04:26:00,
2013-05-28 00:31:00,51.3,45.9,30.15,NNE,31,0.0,0.0,82,0.00,,,0.00,0,HR-IXPWINDi_r2_v1.2.,2013-05-28 04:31:00,
2013-05-28 00:36:00,51.1,45.4,30.15,NNE,31,0.0,0.0,81,0.00,,,0.00,0,HR-IXPWINDi_r2_v1.2.,2013-05-28 04:36:00,
2013-05-28 00:42:00,51.0,45.3,30.15,NNE,31,0.0,0.0,81,0.00,,,0.00,0,HR-IXPWINDi_r2_v1.2.,2013-05-28 04:42:00,
2013-05-28 00:47:00,51.0,45.6,30.15,NNE,31,0.0,0.0,82,0.00,,,0.00,0,HR-IXPWINDi_r2_v1.2.,2013-05-28 04:47:00,
2013-05-28 00:52:00,50.8,45.4,30.16,NNE,31,0.0,0.0,82,0.00,,,0.00,0,HR-IXPWINDi_r2_v1.2.,2013-05-28 04:52:00,
2013-05-28 00:57:00,50.7,45.7,30.16,NNE,31,0.0,0.0,83,0.00,,,0.00,0,HR-IXPWINDi_r2_v1.2.,2013-05-28 04:57:00,
2013-05-28 01:03:00,50.5,45.2,30.16,NNE,31,0.0,0.0,82,0.00,,,0.00,0,HR-IXPWINDi_r2_v1.2.,2013-05-28 05:03:00,
2013-05-28 01:08:00,50.4,45.4,30.16,NNE,31,0.0,0.0,83,0.00,,,0.00,0,HR-IXPWINDi_r2_v1.2.,2013-05-28 05:08:00,
2013-05-28 01:13:00,50.4,45.1,30.16,NNE,31,0.0,0.0,82,0.00,,,0.00,0,HR-IXPWINDi_r2_v1.2.,2013-05-28 05:13:00,
2013-05-28 01:18:00,50.4,45.4,30.16,NNE,31,0.0,0.0,83,0.00,,,0.00,0,HR-IXPWINDi_r2_v1.2.,2013-05-28 05:18:00,
2013-05-28 01:23:00,50.4,45.4,30.16,NNE,31,0.0,0.0,83,0.00,,,0.00,0,HR-IXPWINDi_r2_v1.2.,2013-05-28 05:23:00,
2013-05-28 01:28:00,50.1,45.1,30.16,NNE,31,0.0,0.0,83,0.00,,,0.00,0,HR-IXPWINDi_r2_v1.2.,2013-05-28 05:28:00,
2013-05-28 01:34:00,50.1,45.1,30.16,NNE,31,0.0,0.0,83,0.00,,,0.00,0,HR-IXPWINDi_r2_v1.2.,2013-05-28 05:34:00,
2013-05-28 01:39:00,50.1,45.4,30.16,NNE,31,0.0,0.0,84,0.00,,,0.00,0,HR-IXPWINDi_r2_v1.2.,2013-05-28 05:39:00,
2013-05-28 01:44:00,50.1,45.4,30.16,NNE,31,0.0,0.0,84,0.00,,,0.00,0,HR-IXPWINDi_r2_v1.2.,2013-05-28 05:44:00,
2013-05-28 01:49:00,50.1,45.4,30.16,NNE,31,0.0,0.0,84,0.00,,,0.00,0,HR-IXPWINDi_r2_v1.2.,2013-05-28 05:49:00,
2013-05-28 01:54:00,49.9,45.2,30.16,NNE,31,0.0,0.0,84,0.00,,,0.00,0,HR-IXPWINDi_r2_v1.2.,2013-05-28 05:54:00,
2013-05-28 01:59:00,49.8,45.4,30.16,NNE,31,0.0,0.0,85,0.00,,,0.00,0,HR-IXPWINDi_r2_v1.2.,2013-05-28 05:59:00,
2013-05-28 02:05:00,49.5,45.1,30.16,NNE,31,0.0,0.0,85,0.00,,,0.00,0,HR-IXPWINDi_r2_v1.2.,2013-05-28 06:05:00,
2013-05-28 02:10:00,49.5,45.1,30.16,NNE,31,0.0,0.0,85,0.00,,,0.00,0,HR-IXPWINDi_r2_v1.2.,2013-05-28 06:10:00,
2013-05-28 02:15:00,49.4,45.0,30.16,NNE,31,0.0,0.0,85,0.00,,,0.00,0,HR-IXPWINDi_r2_v1.2.,2013-05-28 06:15:00,
2013-05-28 02:20:00,49.5,45.4,30.16,NNE,31,0.0,0.0,86,0.00,,,0.00,0,HR-IXPWINDi_r2_v1.2.,2013-05-28 06:20:00,
2013-05-28 02:25:00,49.5,45.4,30.16,NNE,31,0.0,0.0,86,0.00,,,0.00,0,HR-IXPWINDi_r2_v1.2.,2013-05-28 06:25:00,
2013-05-28 02:31:00,49.5,45.4,30.16,NNE,31,0.0,0.0,86,0.00,,,0.00,0,HR-IXPWINDi_r2_v1.2.,2013-05-28 06:31:00,
2013-05-28 02:36:00,49.6,45.5,30.16,NNE,31,0.0,0.0,86,0.00,,,0.00,0,HR-IXPWINDi_r2_v1.2.,2013-05-28 06:36:00,
2013-05-28 02:41:00,49.6,45.5,30.16,NNE,31,0.0,0.0,86,0.00,,,0.00,0,HR-IXPWINDi_r2_v1.2.,2013-05-28 06:41:00,
2013-05-28 02:46:00,49.8,45.7,30.16,NNE,31,0.0,0.0,86,0.00,,,0.00,0,HR-IXPWINDi_r2_v1.2.,2013-05-28 06:46:00,
2013-05-28 02:51:00,49.8,46.0,30.16,NNE,31,0.0,0.0,87,0.00,,,0.00,0,HR-IXPWINDi_r2_v1.2.,2013-05-28 06:51:00,
2013-05-28 02:57:00,49.8,46.0,30.16,NNE,31,0.0,0.0,87,0.00,,,0.00,0,HR-IXPWINDi_r2_v1.2.,2013-05-28 06:57:00,
2013-05-28 03:02:00,49.6,45.8,30.16,NNE,31,0.0,0.0,87,0.00,,,0.00,0,HR-IXPWINDi_r2_v1.2.,2013-05-28 07:02:00,
2013-05-28 03:07:00,49.6,45.8,30.16,NNE,31,0.0,0.0,87,0.00,,,0.00,0,HR-IXPWINDi_r2_v1.2.,2013-05-28 07:07:00,
2013-05-28 03:12:00,49.6,45.8,30.16,NNE,31,0.0,0.0,87,0.00,,,0.00,0,HR-IXPWINDi_r2_v1.2.,2013-05-28 07:12:00,
2013-05-28 03:17:00,49.5,45.7,30.16,NNE,31,0.0,0.0,87,0.00,,,0.00,0,HR-IXPWINDi_r2_v1.2.,2013-05-28 07:17:00,
2013-05-28 03:22:00,49.2,45.4,30.16,NNE,31,0.0,0.0,87,0.00,,,0.00,0,HR-IXPWINDi_r2_v1.2.,2013-05-28 07:22:00,
2013-05-28 03:28:00,49.1,45.3,30.16,NNE,31,0.0,0.0,87,0.00,,,0.00,0,HR-IXPWINDi_r2_v1.2.,2013-05-28 07:28:00,
2013-05-28 03:33:00,49.1,45.3,30.16,NNE,31,0.0,0.0,87,0.00,,,0.00,0,HR-IXPWINDi_r2_v1.2.,2013-05-28 07:33:00,
2013-05-28 03:38:00,48.9,45.4,30.16,NNE,31,0.0,0.0,88,0.00,,,0.00,0,HR-IXPWINDi_r2_v1.2.,2013-05-28 07:38:00,
2013-05-28 03:43:00,48.8,45.3,30.16,NNE,31,0.0,0.0,88,0.00,,,0.00,0,HR-IXPWINDi_r2_v1.2.,2013-05-28 07:43:00,
2013-05-28 03:48:00,48.9,45.4,30.16,NNE,31,0.0,0.0,88,0.00,,,0.00,0,HR-IXPWINDi_r2_v1.2.,2013-05-28 07:48:00,
2013-05-28 03:54:00,48.9,45.7,30.16,NNE,31,0.0,0.0,89,0.00,,,0.00,0,HR-IXPWINDi_r2_v1.2.,2013-05-28 07:54:00,
2013-05-28 03:59:00,49.1,45.9,30.16,NNE,31,0.0,0.0,89,0.00,,,0.00,0,HR-IXPWINDi_r2_v1.2.,2013-05-28 07:59:00,
2013-05-28 04:04:00,49.1,45.9,30.16,NNE,31,0.0,0.0,89,0.00,,,0.00,0,HR-IXPWINDi_r2_v1.2.,2013-05-28 08:04:00,
2013-05-28 04:09:00,49.1,45.9,30.16,NNE,31,0.0,0.0,89,0.00,,,0.00,0,HR-IXPWINDi_r2_v1.2.,2013-05-28 08:09:00,
2013-05-28 04:14:00,49.1,45.9,30.16,NNE,31,0.0,0.0,89,0.00,,,0.00,0,HR-IXPWINDi_r2_v1.2.,2013-05-28 08:14:00,
2013-05-28 04:20:00,49.1,45.9,30.16,NNE,31,0.0,0.0,89,0.00,,,0.00,0,HR-IXPWINDi_r2_v1.2.,2013-05-28 08:20:00,
2013-05-28 04:25:00,49.1,45.9,30.16,NNE,31,0.0,0.0,89,0.00,,,0.00,0,HR-IXPWINDi_r2_v1.2.,2013-05-28 08:25:00,
2013-05-28 04:30:00,49.2,46.0,30.16,NNE,31,0.0,0.0,89,0.00,,,0.00,0,HR-IXPWINDi_r2_v1.2.,2013-05-28 08:30:00,
2013-05-28 04:35:00,49.4,46.2,30.16,NNE,28,0.0,0.0,89,0.00,,,0.00,0,HR-IXPWINDi_r2_v1.2.,2013-05-28 08:35:00,
2013-05-28 04:40:00,49.4,46.2,30.16,NNE,31,0.0,0.0,89,0.00,,,0.00,0,HR-IXPWINDi_r2_v1.2.,2013-05-28 08:40:00,
2013-05-28 04:45:00,49.5,46.3,30.16,NNE,31,0.0,0.0,89,0.00,,,0.00,0,HR-IXPWINDi_r2_v1.2.,2013-05-28 08:45:00,
2013-05-28 04:50:00,49.5,46.3,30.16,NNE,31,0.0,0.0,89,0.00,,,0.00,0,HR-IXPWINDi_r2_v1.2.,2013-05-28 08:50:00,
2013-05-28 04:56:00,49.5,46.3,30.16,NNE,31,0.0,0.0,89,0.00,,,0.00,0,HR-IXPWINDi_r2_v1.2.,2013-05-28 08:56:00,
2013-05-28 05:01:00,49.5,46.3,30.16,NNE,31,0.0,0.0,89,0.00,,,0.00,0,HR-IXPWINDi_r2_v1.2.,2013-05-28 09:01:00,
2013-05-28 05:06:00,49.4,46.2,30.16,NNE,31,0.0,0.0,89,0.00,,,0.00,0,HR-IXPWINDi_r2_v1.2.,2013-05-28 09:06:00,
2013-05-28 05:11:00,49.4,46.2,30.16,NNE,31,0.0,0.0,89,0.00,,,0.00,0,HR-IXPWINDi_r2_v1.2.,2013-05-28 09:11:00,
2013-05-28 05:16:00,49.2,46.0,30.16,NNE,31,0.0,0.0,89,0.00,,,0.00,0,HR-IXPWINDi_r2_v1.2.,2013-05-28 09:16:00,
2013-05-28 05:21:00,49.1,45.9,30.16,NNE,31,0.0,0.0,89,0.00,,,0.00,0,HR-IXPWINDi_r2_v1.2.,2013-05-28 09:21:00,
2013-05-28 05:27:00,49.1,45.9,30.16,NNE,31,0.0,0.0,89,0.00,,,0.00,0,HR-IXPWINDi_r2_v1.2.,2013-05-28 09:27:00,
2013-05-28 05:32:00,49.1,45.9,30.16,NNE,31,0.0,0.0,89,0.00,,,0.00,0,HR-IXPWINDi_r2_v1.2.,2013-05-28 09:32:00,
2013-05-28 05:37:00,49.1,45.9,30.17,NNE,31,0.0,0.0,89,0.00,,,0.00,0,HR-IXPWINDi_r2_v1.2.,2013-05-28 09:37:00,
2013-05-28 05:42:00,48.9,45.7,30.17,NNE,31,0.0,0.0,89,0.00,,,0.00,0,HR-IXPWINDi_r2_v1.2.,2013-05-28 09:42:00,
2013-05-28 05:47:00,48.9,45.7,30.17,NNE,31,0.0,0.0,89,0.00,,,0.00,0,HR-IXPWINDi_r2_v1.2.,2013-05-28 09:47:00,
2013-05-28 05:53:00,48.9,46.0,30.16,NNE,31,0.0,0.0,90,0.00,,,0.00,0,HR-IXPWINDi_r2_v1.2.,2013-05-28 09:53:00,
2013-05-28 05:58:00,49.1,46.2,30.16,NNE,31,0.0,0.0,90,0.00,,,0.00,0,HR-IXPWINDi_r2_v1.2.,2013-05-28 09:58:00,
2013-05-28 06:03:00,49.2,46.3,30.16,NNE,30,0.0,0.0,90,0.00,,,0.00,9,HR-IXPWINDi_r2_v1.2.,2013-05-28 10:03:00,
2013-05-28 06:08:00,49.4,46.5,30.17,NNE,30,0.0,0.0,90,0.00,,,0.00,9,HR-IXPWINDi_r2_v1.2.,2013-05-28 10:08:00,
2013-05-28 06:14:00,49.5,46.6,30.17,NNE,30,0.0,0.0,90,0.00,,,0.00,9,HR-IXPWINDi_r2_v1.2.,2013-05-28 10:14:00,
2013-05-28 06:19:00,49.6,46.7,30.17,NNE,31,0.0,0.0,90,0.00,,,0.00,9,HR-IXPWINDi_r2_v1.2.,2013-05-28 10:19:00,
2013-05-28 06:24:00,49.8,46.9,30.18,NNE,30,0.0,0.0,90,0.00,,,0.00,14,HR-IXPWINDi_r2_v1.2.,2013-05-28 10:24:00,
2013-05-28 06:29:00,49.8,46.9,30.18,NNE,30,0.0,0.0,90,0.00,,,0.00,21,HR-IXPWINDi_r2_v1.2.,2013-05-28 10:29:00,
2013-05-28 06:34:00,49.9,47.0,30.18,NNE,30,0.0,0.0,90,0.00,,,0.00,33,HR-IXPWINDi_r2_v1.2.,2013-05-28 10:34:00,
2013-05-28 06:40:00,49.9,47.0,30.18,NNE,30,0.0,0.0,90,0.00,,,0.00,26,HR-IXPWINDi_r2_v1.2.,2013-05-28 10:40:00,
2013-05-28 06:45:00,50.4,47.5,30.18,NNE,30,0.0,0.0,90,0.00,,,0.00,35,HR-IXPWINDi_r2_v1.2.,2013-05-28 10:45:00,
2013-05-28 06:50:00,50.5,47.6,30.17,NNE,30,0.0,0.0,90,0.00,,,0.00,35,HR-IXPWINDi_r2_v1.2.,2013-05-28 10:50:00,
2013-05-28 06:55:00,50.8,47.9,30.17,NNE,30,0.0,0.0,90,0.00,,,0.00,35,HR-IXPWINDi_r2_v1.2.,2013-05-28 10:55:00,
2013-05-28 07:01:00,51.1,47.9,30.17,NNE,30,0.0,0.0,89,0.00,,,0.00,40,HR-IXPWINDi_r2_v1.2.,2013-05-28 11:01:00,
2013-05-28 07:06:00,51.6,48.4,30.18,NNE,30,0.0,0.0,89,0.00,,,0.00,42,HR-IXPWINDi_r2_v1.2.,2013-05-28 11:06:00,
2013-05-28 07:11:00,51.9,48.4,30.18,NNE,30,0.0,0.0,88,0.00,,,0.00,44,HR-IXPWINDi_r2_v1.2.,2013-05-28 11:11:00,
2013-05-28 07:16:00,52.2,48.7,30.18,NNE,30,0.0,0.0,88,0.00,,,0.00,46,HR-IXPWINDi_r2_v1.2.,2013-05-28 11:16:00,
2013-05-28 07:21:00,52.6,48.8,30.17,NNE,30,0.0,0.0,87,0.00,,,0.00,48,HR-IXPWINDi_r2_v1.2.,2013-05-28 11:21:00,
2013-05-28 07:26:00,53.1,49.0,30.17,NNE,30,0.0,0.0,86,0.00,,,0.00,48,HR-IXPWINDi_r2_v1.2.,2013-05-28 11:26:00,
2013-05-28 07:31:00,53.5,48.7,30.17,NNE,30,0.0,0.0,84,0.00,,,0.00,49,HR-IXPWINDi_r2_v1.2.,2013-05-28 11:31:00,
2013-05-28 07:36:00,53.9,48.8,30.18,NNE,30,0.0,0.0,83,0.00,,,0.00,153,HR-IXPWINDi_r2_v1.2.,2013-05-28 11:36:00,
2013-05-28 07:41:00,54.5,49.1,30.18,NNE,31,0.0,0.0,82,0.00,,,0.00,76,HR-IXPWINDi_r2_v1.2.,2013-05-28 11:41:00,
2013-05-28 07:46:00,55.1,49.0,30.18,NNE,30,0.0,0.0,80,0.00,,,0.00,76,HR-IXPWINDi_r2_v1.2.,2013-05-28 11:46:00,
2013-05-28 07:52:00,55.7,48.9,30.17,NNE,30,0.0,0.0,78,0.00,,,0.00,74,HR-IXPWINDi_r2_v1.2.,2013-05-28 11:52:00,
2013-05-28 07:57:00,56.3,48.8,30.17,NNE,30,0.0,0.0,76,0.00,,,0.00,83,HR-IXPWINDi_r2_v1.2.,2013-05-28 11:57:00,
2013-05-28 08:02:00,57.0,48.7,30.17,NNE,30,0.0,0.0,74,0.00,,,0.00,93,HR-IXPWINDi_r2_v1.2.,2013-05-28 12:02:00,
2013-05-28 08:07:00,57.6,48.2,30.17,NNE,30,0.0,0.0,71,0.00,,,0.00,91,HR-IXPWINDi_r2_v1.2.,2013-05-28 12:07:00,
2013-05-28 08:13:00,58.1,47.9,30.17,NNE,30,0.0,0.0,69,0.00,,,0.00,81,HR-IXPWINDi_r2_v1.2.,2013-05-28 12:13:00,
2013-05-28 08:18:00,58.6,48.4,30.17,NNE,30,0.0,0.0,69,0.00,,,0.00,74,HR-IXPWINDi_r2_v1.2.,2013-05-28 12:18:00,
2013-05-28 08:23:00,59.2,49.0,30.17,NNE,30,0.0,0.0,69,0.00,,,0.00,97,HR-IXPWINDi_r2_v1.2.,2013-05-28 12:23:00,
2013-05-28 08:28:00,59.9,48.5,30.17,NNE,30,0.0,0.0,66,0.00,,,0.00,102,HR-IXPWINDi_r2_v1.2.,2013-05-28 12:28:00,
2013-05-28 08:34:00,60.7,49.2,30.17,NNE,30,0.0,0.0,66,0.00,,,0.00,116,HR-IXPWINDi_r2_v1.2.,2013-05-28 12:34:00,
2013-05-28 08:39:00,61.3,49.4,30.17,NNE,30,0.0,0.0,65,0.00,,,0.00,111,HR-IXPWINDi_r2_v1.2.,2013-05-28 12:39:00,
2013-05-28 08:44:00,62.0,49.6,30.17,NNE,30,0.0,0.0,64,0.00,,,0.00,114,HR-IXPWINDi_r2_v1.2.,2013-05-28 12:44:00,
2013-05-28 08:49:00,62.3,48.6,30.17,NNE,30,0.0,0.0,61,0.00,,,0.00,146,HR-IXPWINDi_r2_v1.2.,2013-05-28 12:49:00,
2013-05-28 08:55:00,62.6,48.5,30.17,NNE,30,0.0,0.0,60,0.00,,,0.00,118,HR-IXPWINDi_r2_v1.2.,2013-05-28 12:55:00,
2013-05-28 09:00:00,62.9,48.3,30.17,NNE,30,0.0,0.0,59,0.00,,,0.00,120,HR-IXPWINDi_r2_v1.2.,2013-05-28 13:00:00,
2013-05-28 09:05:00,63.2,48.1,30.18,NNE,30,0.0,0.0,58,0.00,,,0.00,127,HR-IXPWINDi_r2_v1.2.,2013-05-28 13:05:00,
2013-05-28 09:10:00,63.5,45.5,30.18,NNE,31,0.0,0.0,52,0.00,,,0.00,139,HR-IXPWINDi_r2_v1.2.,2013-05-28 13:10:00,
2013-05-28 09:16:00,64.2,41.8,30.18,NE,41,2.0,3.0,44,0.00,,,0.00,146,HR-IXPWINDi_r2_v1.2.,2013-05-28 13:16:00,
2013-05-28 09:21:00,64.7,41.0,30.18,NE,41,0.0,3.0,42,0.00,,,0.00,143,HR-IXPWINDi_r2_v1.2.,2013-05-28 13:21:00,
2013-05-28 09:26:00,65.0,41.9,30.18,NE,41,0.0,2.0,43,0.00,,,0.00,150,HR-IXPWINDi_r2_v1.2.,2013-05-28 13:26:00,
2013-05-28 09:32:00,65.2,41.5,30.18,NE,41,1.0,2.0,42,0.00,,,0.00,155,HR-IXPWINDi_r2_v1.2.,2013-05-28 13:32:00,
2013-05-28 09:37:00,65.3,43.4,30.18,NE,41,1.0,2.0,45,0.00,,,0.00,178,HR-IXPWINDi_r2_v1.2.,2013-05-28 13:37:00,
2013-05-28 09:42:00,65.6,43.6,30.18,NE,41,0.0,2.0,45,0.00,,,0.00,174,HR-IXPWINDi_r2_v1.2.,2013-05-28 13:42:00,
2013-05-28 09:47:00,66.0,44.6,30.18,NE,41,0.0,2.0,46,0.00,,,0.00,179,HR-IXPWINDi_r2_v1.2.,2013-05-28 13:47:00,
2013-05-28 09:53:00,66.0,43.4,30.18,SSE,165,0.0,3.0,44,0.00,,,0.00,188,HR-IXPWINDi_r2_v1.2.,2013-05-28 13:53:00,
2013-05-28 09:58:00,66.0,44.0,30.18,SSE,164,1.0,3.0,45,0.00,,,0.00,194,HR-IXPWINDi_r2_v1.2.,2013-05-28 13:58:00,
2013-05-28 10:03:00,65.6,43.6,30.18,SSE,160,1.0,3.0,45,0.00,,,0.00,188,HR-IXPWINDi_r2_v1.2.,2013-05-28 14:03:00,
2013-05-28 10:09:00,65.5,44.1,30.18,SSE,160,1.0,3.0,46,0.00,,,0.00,192,HR-IXPWINDi_r2_v1.2.,2013-05-28 14:09:00,
2013-05-28 10:14:00,65.5,44.1,30.18,SSE,164,1.0,3.0,46,0.00,,,0.00,192,HR-IXPWINDi_r2_v1.2.,2013-05-28 14:14:00,
2013-05-28 10:19:00,65.5,44.1,30.18,SSE,164,2.0,3.0,46,0.00,,,0.00,197,HR-IXPWINDi_r2_v1.2.,2013-05-28 14:19:00,
2013-05-28 10:24:00,65.6,44.2,30.18,SSE,164,0.0,3.0,46,0.00,,,0.00,202,HR-IXPWINDi_r2_v1.2.,2013-05-28 14:24:00,
2013-05-28 10:29:00,65.6,45.3,30.18,SSE,164,2.0,3.0,48,0.00,,,0.00,204,HR-IXPWINDi_r2_v1.2.,2013-05-28 14:29:00,
2013-05-28 10:34:00,65.6,45.3,30.18,SSE,161,1.0,3.0,48,0.00,,,0.00,216,HR-IXPWINDi_r2_v1.2.,2013-05-28 14:34:00,
2013-05-28 10:39:00,65.8,46.1,30.18,SSE,161,0.0,3.0,49,0.00,,,0.00,220,HR-IXPWINDi_r2_v1.2.,2013-05-28 14:39:00,
2013-05-28 10:45:00,66.0,46.2,30.18,SSE,161,0.0,2.0,49,0.00,,,0.00,218,HR-IXPWINDi_r2_v1.2.,2013-05-28 14:45:00,
2013-05-28 10:50:00,66.1,45.8,30.18,SSE,161,2.0,2.0,48,0.00,,,0.00,204,HR-IXPWINDi_r2_v1.2.,2013-05-28 14:50:00,
2013-05-28 10:55:00,66.0,46.2,30.18,SSE,162,0.0,2.0,49,0.00,,,0.00,206,HR-IXPWINDi_r2_v1.2.,2013-05-28 14:55:00,
2013-05-28 11:00:00,65.8,46.1,30.18,SSE,162,2.0,2.0,49,0.00,,,0.00,213,HR-IXPWINDi_r2_v1.2.,2013-05-28 15:00:00,
2013-05-28 11:05:00,65.6,46.9,30.18,SSE,161,0.0,2.0,51,0.00,,,0.00,218,HR-IXPWINDi_r2_v1.2.,2013-05-28 15:05:00,
2013-05-28 11:11:00,65.8,47.1,30.18,SSE,162,0.0,2.0,51,0.00,,,0.00,211,HR-IXPWINDi_r2_v1.2.,2013-05-28 15:11:00,
2013-05-28 11:16:00,65.6,46.9,30.18,SSE,162,0.0,2.0,51,0.00,,,0.00,209,HR-IXPWINDi_r2_v1.2.,2013-05-28 15:16:00,
2013-05-28 11:21:00,65.6,47.5,30.18,SSE,162,1.0,2.0,52,0.00,,,0.00,208,HR-IXPWINDi_r2_v1.2.,2013-05-28 15:21:00,
2013-05-28 11:26:00,65.5,47.4,30.18,SSE,162,0.0,2.0,52,0.00,,,0.00,199,HR-IXPWINDi_r2_v1.2.,2013-05-28 15:26:00,
2013-05-28 11:31:00,65.6,48.5,30.18,SSE,162,0.0,2.0,54,0.00,,,0.00,195,HR-IXPWINDi_r2_v1.2.,2013-05-28 15:31:00,
2013-05-28 11:37:00,65.8,48.1,30.18,SSE,162,0.0,0.0,53,0.00,,,0.00,172,HR-IXPWINDi_r2_v1.2.,2013-05-28 15:37:00,
2013-05-28 11:42:00,66.0,48.3,30.18,SSE,162,0.0,0.0,53,0.00,,,0.00,150,HR-IXPWINDi_r2_v1.2.,2013-05-28 15:42:00,
2013-05-28 11:47:00,66.0,48.8,30.18,SSE,162,0.0,0.0,54,0.00,,,0.00,148,HR-IXPWINDi_r2_v1.2.,2013-05-28 15:47:00,
2013-05-28 11:52:00,66.0,48.8,30.18,SSE,162,0.0,0.0,54,0.00,,,0.00,135,HR-IXPWINDi_r2_v1.2.,2013-05-28 15:52:00,
2013-05-28 11:57:00,66.1,48.9,30.18,SSE,162,0.0,0.0,54,0.00,,,0.00,128,HR-IXPWINDi_r2_v1.2.,2013-05-28 15:57:00,
2013-05-28 12:03:00,66.3,48.6,30.18,SSE,162,0.0,0.0,53,0.00,,,0.00,123,HR-IXPWINDi_r2_v1.2.,2013-05-28 16:03:00,
2013-05-28 12:08:00,66.3,49.6,30.18,SSE,162,0.0,0.0,55,0.00,,,0.00,116,HR-IXPWINDi_r2_v1.2.,2013-05-28 16:08:00,
2013-05-28 12:13:00,66.3,49.1,30.18,SSE,162,0.0,0.0,54,0.00,,,0.00,111,HR-IXPWINDi_r2_v1.2.,2013-05-28 16:13:00,
2013-05-28 12:18:00,66.3,49.6,30.18,SSE,162,0.0,0.0,55,0.00,,,0.00,107,HR-IXPWINDi_r2_v1.2.,2013-05-28 16:18:00,
2013-05-28 12:23:00,66.1,50.8,30.18,SSE,162,0.0,0.0,58,0.00,,,0.00,106,HR-IXPWINDi_r2_v1.2.,2013-05-28 16:23:00,
2013-05-28 12:29:00,66.1,52.2,30.18,SSE,161,0.0,0.0,61,0.00,,,0.00,99,HR-IXPWINDi_r2_v1.2.,2013-05-28 16:29:00,
2013-05-28 12:34:00,66.0,52.1,30.18,SSE,162,0.0,0.0,61,0.00,,,0.00,90,HR-IXPWINDi_r2_v1.2.,2013-05-28 16:34:00,
2013-05-28 12:39:00,65.6,52.2,30.18,SSE,162,0.0,0.0,62,0.00,,,0.00,95,HR-IXPWINDi_r2_v1.2.,2013-05-28 16:39:00,
2013-05-28 12:45:00,65.5,52.9,30.18,SSE,162,0.0,0.0,64,0.00,,,0.00,97,HR-IXPWINDi_r2_v1.2.,2013-05-28 16:45:00,
2013-05-28 12:50:00,65.2,53.5,30.17,SSE,161,0.0,0.0,66,0.00,,,0.00,107,HR-IXPWINDi_r2_v1.2.,2013-05-28 16:50:00,
2013-05-28 12:55:00,64.5,53.2,30.17,SSE,162,0.0,1.0,67,0.00,,,0.00,114,HR-IXPWINDi_r2_v1.2.,2013-05-28 16:55:00,
2013-05-28 13:00:00,64.0,52.8,30.17,SSE,162,0.0,1.0,67,0.00,,,0.00,114,HR-IXPWINDi_r2_v1.2.,2013-05-28 17:00:00,
2013-05-28 13:05:00,63.5,52.3,30.17,SE,145,0.0,2.0,67,0.00,,,0.00,106,HR-IXPWINDi_r2_v1.2.,2013-05-28 17:05:00,
2013-05-28 13:10:00,63.1,52.3,30.17,SE,145,0.0,2.0,68,0.00,,,0.00,100,HR-IXPWINDi_r2_v1.2.,2013-05-28 17:10:00,
2013-05-28 13:16:00,62.9,52.5,30.17,SE,145,0.0,1.0,69,0.00,,,0.00,90,HR-IXPWINDi_r2_v1.2.,2013-05-28 17:16:00,
2013-05-28 13:21:00,62.6,53.0,30.17,SE,145,0.0,0.0,71,0.00,,,0.00,79,HR-IXPWINDi_r2_v1.2.,2013-05-28 17:21:00,
2013-05-28 13:27:00,62.1,53.7,30.17,SE,145,0.0,0.0,74,0.00,,,0.00,76,HR-IXPWINDi_r2_v1.2.,2013-05-28 17:27:00,
2013-05-28 13:32:00,62.0,54.3,30.17,SE,145,0.0,0.0,76,0.00,,,0.00,76,HR-IXPWINDi_r2_v1.2.,2013-05-28 17:32:00,
2013-05-28 13:37:00,61.8,55.2,30.17,SE,145,0.0,0.0,79,0.00,,,0.00,77,HR-IXPWINDi_r2_v1.2.,2013-05-28 17:37:00,
2013-05-28 13:42:00,61.6,55.6,30.17,SE,145,0.0,0.0,81,0.00,,,0.00,76,HR-IXPWINDi_r2_v1.2.,2013-05-28 17:42:00,
2013-05-28 13:47:00,61.5,55.9,30.17,SSE,147,0.0,0.0,82,0.00,,,0.00,77,HR-IXPWINDi_r2_v1.2.,2013-05-28 17:47:00,
2013-05-28 13:53:00,61.3,56.0,30.17,SE,145,0.0,0.0,83,0.00,,,0.00,74,HR-IXPWINDi_r2_v1.2.,2013-05-28 17:53:00,
2013-05-28 13:58:00,61.2,56.3,30.17,SE,145,0.0,0.0,84,0.00,,,0.00,76,HR-IXPWINDi_r2_v1.2.,2013-05-28 17:58:00,
2013-05-28 14:03:00,61.0,56.4,30.17,SE,145,0.0,0.0,85,0.00,,,0.00,70,HR-IXPWINDi_r2_v1.2.,2013-05-28 18:03:00,
2013-05-28 14:08:00,60.9,56.3,30.17,SE,145,0.0,0.0,85,0.00,,,0.00,72,HR-IXPWINDi_r2_v1.2.,2013-05-28 18:08:00,
2013-05-28 14:13:00,60.5,56.2,30.17,SSE,147,0.0,0.0,86,0.00,,,0.00,72,HR-IXPWINDi_r2_v1.2.,2013-05-28 18:13:00,
2013-05-28 14:18:00,60.1,55.8,30.17,SE,145,2.0,2.0,86,0.00,,,0.00,72,HR-IXPWINDi_r2_v1.2.,2013-05-28 18:18:00,
2013-05-28 14:23:00,59.3,55.4,30.17,SE,145,1.0,2.0,87,0.00,,,0.00,67,HR-IXPWINDi_r2_v1.2.,2013-05-28 18:23:00,
2013-05-28 14:29:00,58.6,54.7,30.17,SE,145,1.0,2.0,87,0.00,,,0.00,67,HR-IXPWINDi_r2_v1.2.,2013-05-28 18:29:00,
2013-05-28 14:34:00,58.4,54.8,30.17,SE,145,0.0,2.0,88,0.00,,,0.00,79,HR-IXPWINDi_r2_v1.2.,2013-05-28 18:34:00,
2013-05-28 14:39:00,58.4,55.1,30.17,SE,145,0.0,1.0,89,0.00,,,0.00,63,HR-IXPWINDi_r2_v1.2.,2013-05-28 18:39:00,
2013-05-28 14:44:00,58.4,55.1,30.17,SE,145,0.0,1.0,89,0.00,,,0.00,72,HR-IXPWINDi_r2_v1.2.,2013-05-28 18:44:00,
2013-05-28 14:49:00,58.6,55.6,30.17,SE,145,0.0,0.0,90,0.00,,,0.00,56,HR-IXPWINDi_r2_v1.2.,2013-05-28 18:49:00,
2013-05-28 14:55:00,58.7,55.7,30.17,SE,145,0.0,0.0,90,0.00,,,0.00,56,HR-IXPWINDi_r2_v1.2.,2013-05-28 18:55:00,
2013-05-28 15:00:00,58.9,55.9,30.17,SE,145,0.0,0.0,90,0.00,,,0.00,70,HR-IXPWINDi_r2_v1.2.,2013-05-28 19:00:00,
2013-05-28 15:05:00,58.4,55.4,30.17,SE,145,0.0,0.0,90,0.00,,,0.00,69,HR-IXPWINDi_r2_v1.2.,2013-05-28 19:05:00,
2013-05-28 15:10:00,58.3,55.3,30.17,SE,145,0.0,0.0,90,0.00,,,0.00,67,HR-IXPWINDi_r2_v1.2.,2013-05-28 19:10:00,
2013-05-28 15:15:00,58.3,55.6,30.17,SE,145,0.0,0.0,91,0.00,,,0.00,62,HR-IXPWINDi_r2_v1.2.,2013-05-28 19:15:00,
2013-05-28 15:21:00,58.4,55.7,30.17,SE,145,0.0,0.0,91,0.00,,,0.00,49,HR-IXPWINDi_r2_v1.2.,2013-05-28 19:21:00,
2013-05-28 15:26:00,58.6,55.9,30.17,SE,145,0.0,0.0,91,0.00,,,0.00,51,HR-IXPWINDi_r2_v1.2.,2013-05-28 19:26:00,
2013-05-28 15:31:00,58.4,55.7,30.17,SSE,147,0.0,0.0,91,0.00,,,0.00,46,HR-IXPWINDi_r2_v1.2.,2013-05-28 19:31:00,
2013-05-28 15:36:00,58.4,55.7,30.17,SSE,147,0.0,1.0,91,0.00,,,0.00,40,HR-IXPWINDi_r2_v1.2.,2013-05-28 19:36:00,
2013-05-28 15:42:00,58.4,56.0,30.17,SE,144,0.0,1.0,92,0.00,,,0.00,40,HR-IXPWINDi_r2_v1.2.,2013-05-28 19:42:00,
2013-05-28 15:47:00,58.7,56.3,30.17,SSE,147,0.0,1.0,92,0.00,,,0.00,37,HR-IXPWINDi_r2_v1.2.,2013-05-28 19:47:00,
2013-05-28 15:52:00,58.9,56.5,30.17,SSE,147,0.0,0.0,92,0.00,,,0.00,28,HR-IXPWINDi_r2_v1.2.,2013-05-28 19:52:00,
2013-05-28 15:57:00,58.9,56.5,30.17,SSE,147,0.0,0.0,92,0.00,,,0.00,21,HR-IXPWINDi_r2_v1.2.,2013-05-28 19:57:00,
2013-05-28 16:02:00,58.7,56.3,30.17,SSE,147,0.0,0.0,92,0.00,,,0.00,11,HR-IXPWINDi_r2_v1.2.,2013-05-28 20:02:00,
2013-05-28 16:08:00,58.6,56.2,30.17,SE,145,0.0,0.0,92,0.00,,,0.00,21,HR-IXPWINDi_r2_v1.2.,2013-05-28 20:08:00,
2013-05-28 16:13:00,58.7,56.3,30.17,SSE,147,0.0,0.0,92,0.00,,,0.00,19,HR-IXPWINDi_r2_v1.2.,2013-05-28 20:13:00,
2013-05-28 16:18:00,58.7,56.3,30.17,SSE,147,0.0,0.0,92,0.00,,,0.00,14,HR-IXPWINDi_r2_v1.2.,2013-05-28 20:18:00,
2013-05-28 16:23:00,58.7,56.3,30.17,SE,145,0.0,0.0,92,0.00,,,0.00,19,HR-IXPWINDi_r2_v1.2.,2013-05-28 20:23:00,
2013-05-28 16:28:00,58.7,56.3,30.17,SE,144,0.0,0.0,92,0.00,,,0.00,18,HR-IXPWINDi_r2_v1.2.,2013-05-28 20:28:00,
2013-05-28 16:34:00,58.7,56.3,30.17,SE,145,0.0,0.0,92,0.00,,,0.00,21,HR-IXPWINDi_r2_v1.2.,2013-05-28 20:34:00,
2013-05-28 16:39:00,58.7,56.3,30.17,SSE,147,0.0,0.0,92,0.00,,,0.00,16,HR-IXPWINDi_r2_v1.2.,2013-05-28 20:39:00,
2013-05-28 16:44:00,58.4,56.0,30.17,SSE,147,0.0,0.0,92,0.00,,,0.00,12,HR-IXPWINDi_r2_v1.2.,2013-05-28 20:44:00,
2013-05-28 16:49:00,58.4,56.0,30.17,SSE,147,0.0,0.0,92,0.00,,,0.00,11,HR-IXPWINDi_r2_v1.2.,2013-05-28 20:49:00,
2013-05-28 16:54:00,58.3,56.2,30.16,SE,144,0.0,0.0,93,0.00,,,0.00,19,HR-IXPWINDi_r2_v1.2.,2013-05-28 20:54:00,
2013-05-28 17:00:00,58.6,56.5,30.16,SSE,147,0.0,0.0,93,0.00,,,0.00,19,HR-IXPWINDi_r2_v1.2.,2013-05-28 21:00:00,
2013-05-28 17:05:00,58.6,56.5,30.15,SE,144,0.0,1.0,93,0.00,,,0.00,14,HR-IXPWINDi_r2_v1.2.,2013-05-28 21:05:00,
2013-05-28 17:10:00,58.7,56.6,30.15,SSE,147,0.0,1.0,93,0.00,,,0.00,18,HR-IXPWINDi_r2_v1.2.,2013-05-28 21:10:00,
2013-05-28 17:15:00,58.6,56.5,30.15,SE,144,0.0,0.0,93,0.00,,,0.00,18,HR-IXPWINDi_r2_v1.2.,2013-05-28 21:15:00,
2013-05-28 17:21:00,58.7,56.6,30.15,SE,145,0.0,0.0,93,0.00,,,0.00,16,HR-IXPWINDi_r2_v1.2.,2013-05-28 21:21:00,
2013-05-28 17:26:00,58.6,56.5,30.15,SSE,147,0.0,0.0,93,0.00,,,0.00,18,HR-IXPWINDi_r2_v1.2.,2013-05-28 21:26:00,
2013-05-28 17:31:00,58.7,56.6,30.15,SE,145,0.0,0.0,93,0.00,,,0.00,11,HR-IXPWINDi_r2_v1.2.,2013-05-28 21:31:00,
2013-05-28 17:36:00,58.9,56.8,30.15,SSE,147,0.0,0.0,93,0.00,,,0.00,9,HR-IXPWINDi_r2_v1.2.,2013-05-28 21:36:00,
2013-05-28 17:42:00,58.9,56.8,30.15,SSE,147,0.0,0.0,93,0.00,,,0.00,11,HR-IXPWINDi_r2_v1.2.,2013-05-28 21:42:00,
2013-05-28 17:47:00,58.7,56.6,30.15,SE,145,0.0,0.0,93,0.00,,,0.00,12,HR-IXPWINDi_r2_v1.2.,2013-05-28 21:47:00,
2013-05-28 17:52:00,58.9,56.8,30.15,SE,144,0.0,0.0,93,0.00,,,0.00,14,HR-IXPWINDi_r2_v1.2.,2013-05-28 21:52:00,
2013-05-28 17:57:00,58.9,56.8,30.15,SE,145,0.0,0.0,93,0.00,,,0.00,12,HR-IXPWINDi_r2_v1.2.,2013-05-28 21:57:00,
2013-05-28 18:02:00,58.9,56.8,30.15,SE,145,0.0,0.0,93,0.00,,,0.00,11,HR-IXPWINDi_r2_v1.2.,2013-05-28 22:02:00,
2013-05-28 18:08:00,58.9,56.8,30.14,SE,145,0.0,0.0,93,0.00,,,0.00,16,HR-IXPWINDi_r2_v1.2.,2013-05-28 22:08:00,
2013-05-28 18:13:00,59.0,57.2,30.14,SE,145,0.0,0.0,94,0.00,,,0.00,14,HR-IXPWINDi_r2_v1.2.,2013-05-28 22:13:00,
2013-05-28 18:18:00,59.2,57.4,30.14,SSE,147,0.0,2.0,94,0.00,,,0.00,11,HR-IXPWINDi_r2_v1.2.,2013-05-28 22:18:00,
2013-05-28 18:23:00,59.0,57.2,30.13,South,188,0.0,3.0,94,0.00,,,0.00,7,HR-IXPWINDi_r2_v1.2.,2013-05-28 22:23:00,
2013-05-28 18:29:00,59.0,57.2,30.13,South,188,0.0,3.0,94,0.00,,,0.00,9,HR-IXPWINDi_r2_v1.2.,2013-05-28 22:29:00,
2013-05-28 18:34:00,59.0,57.2,30.13,South,186,0.0,2.0,94,0.00,,,0.00,5,HR-IXPWINDi_r2_v1.2.,2013-05-28 22:34:00,
2013-05-28 18:39:00,59.2,57.4,30.13,South,188,0.0,0.0,94,0.00,,,0.00,5,HR-IXPWINDi_r2_v1.2.,2013-05-28 22:39:00,
2013-05-28 18:44:00,59.2,57.4,30.13,South,188,0.0,0.0,94,0.00,,,0.00,0,HR-IXPWINDi_r2_v1.2.,2013-05-28 22:44:00,
2013-05-28 18:49:00,59.2,57.4,30.13,South,188,0.0,0.0,94,0.00,,,0.00,0,HR-IXPWINDi_r2_v1.2.,2013-05-28 22:49:00,
2013-05-28 18:54:00,59.2,57.4,30.13,South,188,0.0,2.0,94,0.00,,,0.00,0,HR-IXPWINDi_r2_v1.2.,2013-05-28 22:54:00,
2013-05-28 19:00:00,59.2,57.4,30.13,South,188,0.0,2.0,94,0.00,,,0.00,0,HR-IXPWINDi_r2_v1.2.,2013-05-28 23:00:00,
2013-05-28 19:05:00,59.2,57.4,30.13,South,186,0.0,0.0,94,0.00,,,0.00,0,HR-IXPWINDi_r2_v1.2.,2013-05-28 23:05:00,
2013-05-28 19:10:00,59.2,57.4,30.13,South,189,0.0,0.0,94,0.00,,,0.00,0,HR-IXPWINDi_r2_v1.2.,2013-05-28 23:10:00,
2013-05-28 19:15:00,59.3,57.5,30.13,South,189,0.0,0.0,94,0.00,,,0.00,0,HR-IXPWINDi_r2_v1.2.,2013-05-28 23:15:00,
2013-05-28 19:20:00,59.3,57.5,30.13,South,186,0.0,0.0,94,0.00,,,0.00,0,HR-IXPWINDi_r2_v1.2.,2013-05-28 23:20:00,
2013-05-28 19:25:00,59.3,57.5,30.13,South,188,0.0,0.0,94,0.00,,,0.00,0,HR-IXPWINDi_r2_v1.2.,2013-05-28 23:25:00,
2013-05-28 19:31:00,59.5,57.7,30.13,South,188,0.0,0.0,94,0.00,,,0.00,0,HR-IXPWINDi_r2_v1.2.,2013-05-28 23:31:00,
2013-05-28 19:36:00,59.6,57.8,30.12,South,179,0.0,0.0,94,0.00,,,0.00,0,HR-IXPWINDi_r2_v1.2.,2013-05-28 23:36:00,
2013-05-28 19:41:00,59.6,57.8,30.12,South,186,0.0,0.0,94,0.00,,,0.00,0,HR-IXPWINDi_r2_v1.2.,2013-05-28 23:41:00,
2013-05-28 19:46:00,59.5,57.7,30.12,South,186,0.0,0.0,94,0.00,,,0.00,0,HR-IXPWINDi_r2_v1.2.,2013-05-28 23:46:00,
2013-05-28 19:51:00,59.6,57.8,30.12,South,188,0.0,0.0,94,0.00,,,0.00,0,HR-IXPWINDi_r2_v1.2.,2013-05-28 23:51:00,
2013-05-28 19:57:00,59.8,58.0,30.12,South,188,0.0,0.0,94,0.00,,,0.00,0,HR-IXPWINDi_r2_v1.2.,2013-05-28 23:57:00,
2013-05-28 20:02:00,59.8,58.0,30.12,South,188,0.0,1.0,94,0.00,,,0.00,0,HR-IXPWINDi_r2_v1.2.,2013-05-29 00:02:00,
2013-05-28 20:07:00,59.8,58.0,30.11,South,188,0.0,1.0,94,0.00,,,0.00,0,HR-IXPWINDi_r2_v1.2.,2013-05-29 00:07:00,
2013-05-28 20:12:00,59.8,58.0,30.11,South,186,0.0,1.0,94,0.00,,,0.00,0,HR-IXPWINDi_r2_v1.2.,2013-05-29 00:12:00,
2013-05-28 20:17:00,59.8,58.0,30.11,South,186,0.0,0.0,94,0.00,,,0.00,0,HR-IXPWINDi_r2_v1.2.,2013-05-29 00:17:00,
2013-05-28 20:23:00,59.9,58.1,30.11,South,189,0.0,0.0,94,0.00,,,0.00,0,HR-IXPWINDi_r2_v1.2.,2013-05-29 00:23:00,
2013-05-28 20:28:00,59.9,58.1,30.11,South,189,0.0,2.0,94,0.00,,,0.00,0,HR-IXPWINDi_r2_v1.2.,2013-05-29 00:28:00,
2013-05-28 20:33:00,59.9,58.1,30.11,South,186,0.0,2.0,94,0.00,,,0.00,0,HR-IXPWINDi_r2_v1.2.,2013-05-29 00:33:00,
2013-05-28 20:38:00,59.9,58.1,30.11,South,188,0.0,0.0,94,0.00,,,0.00,0,HR-IXPWINDi_r2_v1.2.,2013-05-29 00:38:00,
2013-05-28 20:43:00,59.9,58.1,30.11,South,186,0.0,0.0,94,0.00,,,0.00,0,HR-IXPWINDi_r2_v1.2.,2013-05-29 00:43:00,
2013-05-28 20:48:00,59.9,58.1,30.11,South,188,0.0,0.0,94,0.00,,,0.00,0,HR-IXPWINDi_r2_v1.2.,2013-05-29 00:48:00,
2013-05-28 20:53:00,60.1,58.3,30.10,South,189,0.0,0.0,94,0.00,,,0.00,0,HR-IXPWINDi_r2_v1.2.,2013-05-29 00:53:00,
2013-05-28 20:59:00,60.1,58.3,30.10,South,188,0.0,0.0,94,0.00,,,0.00,0,HR-IXPWINDi_r2_v1.2.,2013-05-29 00:59:00,
2013-05-28 21:04:00,60.1,58.3,30.10,South,188,0.0,0.0,94,0.00,,,0.00,0,HR-IXPWINDi_r2_v1.2.,2013-05-29 01:04:00,
2013-05-28 21:09:00,60.2,58.4,30.11,South,189,0.0,0.0,94,0.00,,,0.00,0,HR-IXPWINDi_r2_v1.2.,2013-05-29 01:09:00,
2013-05-28 21:15:00,60.1,58.6,30.11,South,188,0.0,0.0,95,0.00,,,0.00,0,HR-IXPWINDi_r2_v1.2.,2013-05-29 01:15:00,
2013-05-28 21:20:00,60.1,58.6,30.11,South,186,0.0,0.0,95,0.00,,,0.00,0,HR-IXPWINDi_r2_v1.2.,2013-05-29 01:20:00,
2013-05-28 21:25:00,60.2,58.7,30.11,South,188,0.0,0.0,95,0.00,,,0.00,0,HR-IXPWINDi_r2_v1.2.,2013-05-29 01:25:00,
2013-05-28 21:30:00,60.4,58.9,30.11,South,188,0.0,0.0,95,0.00,,,0.00,0,HR-IXPWINDi_r2_v1.2.,2013-05-29 01:30:00,
2013-05-28 21:36:00,60.4,58.9,30.11,South,188,0.0,0.0,95,0.00,,,0.00,0,HR-IXPWINDi_r2_v1.2.,2013-05-29 01:36:00,
2013-05-28 21:41:00,60.4,58.9,30.11,South,188,0.0,0.0,95,0.00,,,0.00,0,HR-IXPWINDi_r2_v1.2.,2013-05-29 01:41:00,
2013-05-28 21:46:00,60.4,58.9,30.11,South,188,0.0,0.0,95,0.00,,,0.00,0,HR-IXPWINDi_r2_v1.2.,2013-05-29 01:46:00,
2013-05-28 21:51:00,60.5,59.0,30.11,South,188,0.0,0.0,95,0.00,,,0.00,0,HR-IXPWINDi_r2_v1.2.,2013-05-29 01:51:00,
2013-05-28 21:56:00,60.5,59.0,30.11,South,188,0.0,0.0,95,0.00,,,0.00,0,HR-IXPWINDi_r2_v1.2.,2013-05-29 01:56:00,
2013-05-28 22:02:00,60.5,59.0,30.11,South,186,0.0,0.0,95,0.00,,,0.00,0,HR-IXPWINDi_r2_v1.2.,2013-05-29 02:02:00,
2013-05-28 22:07:00,60.5,59.0,30.11,South,186,0.0,0.0,95,0.00,,,0.00,0,HR-IXPWINDi_r2_v1.2.,2013-05-29 02:07:00,
2013-05-28 22:12:00,60.5,59.0,30.11,South,186,0.0,0.0,95,0.00,,,0.00,0,HR-IXPWINDi_r2_v1.2.,2013-05-29 02:12:00,
2013-05-28 22:18:00,60.7,59.2,30.11,South,188,0.0,0.0,95,0.00,,,0.00,0,HR-IXPWINDi_r2_v1.2.,2013-05-29 02:18:00,
2013-05-28 22:23:00,60.7,59.2,30.11,South,188,0.0,0.0,95,0.00,,,0.00,0,HR-IXPWINDi_r2_v1.2.,2013-05-29 02:23:00,
2013-05-28 22:28:00,60.7,59.2,30.11,South,186,0.0,0.0,95,0.00,,,0.00,0,HR-IXPWINDi_r2_v1.2.,2013-05-29 02:28:00,
2013-05-28 22:33:00,60.7,59.2,30.11,South,186,0.0,0.0,95,0.00,,,0.00,0,HR-IXPWINDi_r2_v1.2.,2013-05-29 02:33:00,
2013-05-28 22:38:00,60.9,59.4,30.11,South,188,0.0,0.0,95,0.00,,,0.00,0,HR-IXPWINDi_r2_v1.2.,2013-05-29 02:38:00,
2013-05-28 22:44:00,60.9,59.4,30.11,South,186,0.0,0.0,95,0.00,,,0.00,0,HR-IXPWINDi_r2_v1.2.,2013-05-29 02:44:00,
2013-05-28 22:49:00,60.9,59.4,30.11,South,186,0.0,0.0,95,0.00,,,0.00,0,HR-IXPWINDi_r2_v1.2.,2013-05-29 02:49:00,
2013-05-28 22:54:00,60.9,59.4,30.11,South,189,0.0,0.0,95,0.00,,,0.00,0,HR-IXPWINDi_r2_v1.2.,2013-05-29 02:54:00,
2013-05-28 22:59:00,61.0,59.5,30.11,South,186,0.0,0.0,95,0.00,,,0.00,0,HR-IXPWINDi_r2_v1.2.,2013-05-29 02:59:00,
2013-05-28 23:04:00,61.0,59.5,30.11,South,181,0.0,0.0,95,0.00,,,0.00,0,HR-IXPWINDi_r2_v1.2.,2013-05-29 03:04:00,
2013-05-28 23:10:00,61.0,59.5,30.10,South,189,0.0,0.0,95,0.00,,,0.00,0,HR-IXPWINDi_r2_v1.2.,2013-05-29 03:10:00,
2013-05-28 23:15:00,61.0,59.5,30.10,South,186,0.0,0.0,95,0.00,,,0.00,0,HR-IXPWINDi_r2_v1.2.,2013-05-29 03:15:00,
2013-05-28 23:20:00,61.2,59.7,30.10,South,188,0.0,0.0,95,0.00,,,0.00,0,HR-IXPWINDi_r2_v1.2.,2013-05-29 03:20:00,
2013-05-28 23:25:00,61.0,59.5,30.10,South,186,0.0,0.0,95,0.00,,,0.00,0,HR-IXPWINDi_r2_v1.2.,2013-05-29 03:25:00,
2013-05-28 23:30:00,61.2,59.7,30.10,South,186,0.0,0.0,95,0.00,,,0.00,0,HR-IXPWINDi_r2_v1.2.,2013-05-29 03:30:00,
2013-05-28 23:35:00,61.2,59.7,30.10,South,189,0.0,0.0,95,0.00,,,0.00,0,HR-IXPWINDi_r2_v1.2.,2013-05-29 03:35:00,
2013-05-28 23:40:00,61.2,59.7,30.10,South,186,0.0,0.0,95,0.00,,,0.00,0,HR-IXPWINDi_r2_v1.2.,2013-05-29 03:40:00,
2013-05-28 23:46:00,61.2,59.7,30.10,South,188,0.0,0.0,95,0.00,,,0.00,0,HR-IXPWINDi_r2_v1.2.,2013-05-29 03:46:00,
2013-05-28 23:51:00,61.2,59.7,30.10,South,186,0.0,0.0,95,0.00,,,0.00,0,HR-IXPWINDi_r2_v1.2.,2013-05-29 03:51:00,
2013-05-28 23:56:00,61.3,59.8,30.10,South,188,0.0,0.0,95,0.00,,,0.00,0,HR-IXPWINDi_r2_v1.2.,2013-05-29 03:56:00,